Maryland METAR Reports


Distance/Direction noted is from Ellicott City, MD as the crow flies

KCBE - Cumberland - 118 miles WNW
Updated: Sat, 09/20/2014 3:42 PM
Partly Cloudy
Partly Cloudy
 Wind from SE
Wind: SE 10 mph
Temperature: 90°F
Dew Point: 54°F
Humidity: 29%
Barometer: 30.09 inHg
Clouds: Partly Cloudy
Visibility: 10 miles
Cloud Details: Partly Cloudy 6500 ft
Partly Cloudy 7500 ft
2014/09/20 19:42 KCBE 201942Z AUTO 13009KT 10SM SCT065 SCT075 32/12 A3009 RMK AO1
KHGR - Hagerstown - 57 miles NW
Updated: Sat, 09/20/2014 3:53 PM
Clear
Clear
 Wind from S
Wind: S 13 mph
Temperature: 79°F
Dew Point: 55°F
Humidity: 45%
Barometer: 30.09 inHg
Clouds: Clear
Visibility: 10 miles
2014/09/20 19:53 KHGR 201953Z 17011KT 10SM CLR 26/13 A3009 RMK AO2 SLP196 T02560128
 
KFDK - Frederick - 34 miles NW
Updated: Sat, 09/20/2014 3:50 PM
Clear
Clear
 Wind from SSE
Wind: SSE 3 mph
Temperature: 84°F
Heat Index: 83°F
Dew Point: 57°F
Humidity: 40%
Barometer: 30.13 inHg
Clouds: Clear
Visibility: 10 miles
2014/09/20 19:50 KFDK 201950Z 16003KT 10SM SKC 29/14 A3013
KGAI - Gaithersburg - 26 miles SW
Updated: Sat, 09/20/2014 3:55 PM
Clear
Clear
 Wind from S
Wind: S 7 mph
Temperature: 79°F
Dew Point: 55°F
Humidity: 45%
Barometer: 30.15 inHg
Clouds: Clear
Visibility: 10 miles
2014/09/20 19:55 KGAI 201955Z 18006KT 10SM CLR 26/13 A3015 RMK AO1
 
KBWI - BWI Airport - 15 miles SE
Updated: Sat, 09/20/2014 3:54 PM
Partly Cloudy
Partly Cloudy
 Wind from S
Wind: S 6 mph
Temperature: 79°F
Dew Point: 52°F
Humidity: 39%
Barometer: 30.12 inHg
Clouds: Partly Cloudy
Visibility: 10 miles
Cloud Details: Partly Cloudy 3500 ft
Partly Cloudy 20000 ft
2014/09/20 19:54 KBWI 201954Z 17005KT 10SM SCT035 SCT200 26/11 A3012 RMK AO2 SLP199 T02560106
KNAK - Annapolis - 32 miles SSE
Updated: Sat, 09/20/2014 3:54 PM
Clear
Clear
 Wind from S
Wind: S 6 mph
Temperature: 77°F
Dew Point: 57°F
Humidity: 51%
Barometer: 30.12 inHg
Clouds: Clear
Visibility: 10 miles
2014/09/20 19:54 KNAK 201954Z AUTO 18005KT 10SM CLR 25/14 A3012 RMK AO2 SLP201 T02500144 $
 
KESN - Easton - 63 miles SE
Updated: Sat, 09/20/2014 3:50 PM
Partly Cloudy
Partly Cloudy
 Wind from SSE
Wind: SSE 8 mph
Temperature: 82°F
Heat Index: 82°F
Dew Point: 57°F
Humidity: 42%
Barometer: 30.15 inHg
Clouds: Partly Cloudy
Visibility: 10 miles
Cloud Details: Partly Cloudy 5000 ft
2014/09/20 19:50 KESN 201950Z 16007KT 10SM SCT050 28/14 A3015
KSBY - Salisbury - 112 miles SE
Updated: Sat, 09/20/2014 3:54 PM
Few Clouds
Few Clouds
 Wind from E
Wind: E 13 mph
Temperature: 79°F
Dew Point: 61°F
Humidity: 54%
Barometer: 30.13 inHg
Clouds: Few Clouds
Visibility: 10 miles
Cloud Details: Few Clouds 2800 ft
2014/09/20 19:54 KSBY 201954Z 09011KT 10SM FEW028 26/16 A3013 RMK AO2 SLP204 T02610161